<?xml version="1.0" encoding="UTF-8" standalone="no" ?>
<gpx xmlns="http://www.topografix.com/GPX/1/1" xmlns:xsi="http://www.w3.org/2001/XMLSchema-instance" xsi:schemaLocation="http://www.topografix.com/GPX/1/1 http://www.topografix.com/GPX/1/1/gpx.xsd" version="1.1" creator="VisuGPX - https://www.visugpx.com">
  <metadata>
    <name>GRPVannesJ6_J11</name>
    <desc><![CDATA[gnerando idor: 12438601_12438612_12438617_12438628_12438643_12438715]]></desc>
  </metadata>
  <trk>
    <name><![CDATA[GRPvannesJ10_BizoleVannes_21.8km-12438643]]></name>
    <extensions>
      <line xmlns="http://www.topografix.com/GPX/gpx_style/0/2">
        <color>0000FF</color>
        <width>4</width>
      </line>
    </extensions>
    <trkseg>
      <trkpt lat="47.67034" lon="-2.64877">
        <ele>49</ele>
        <time>2023-10-30T18:03:59Z</time>
      </trkpt>
      <trkpt lat="47.67052" lon="-2.64923">
        <ele>51</ele>
        <time>2023-10-30T18:04:47Z</time>
      </trkpt>
      <trkpt lat="47.67116" lon="-2.64945">
        <ele>55</ele>
        <time>2023-10-30T18:06:14Z</time>
      </trkpt>
      <trkpt lat="47.6715" lon="-2.64941">
        <ele>57</ele>
        <time>2023-10-30T18:07:00Z</time>
      </trkpt>
      <trkpt lat="47.67169" lon="-2.64934">
        <ele>58</ele>
        <time>2023-10-30T18:07:26Z</time>
      </trkpt>
      <trkpt lat="47.67221" lon="-2.64894">
        <ele>61</ele>
        <time>2023-10-30T18:08:44Z</time>
      </trkpt>
      <trkpt lat="47.67252" lon="-2.64903">
        <ele>64</ele>
        <time>2023-10-30T18:09:26Z</time>
      </trkpt>
      <trkpt lat="47.67262" lon="-2.64986">
        <ele>67</ele>
        <time>2023-10-30T18:10:42Z</time>
      </trkpt>
      <trkpt lat="47.67287" lon="-2.64997">
        <ele>71</ele>
        <time>2023-10-30T18:11:17Z</time>
      </trkpt>
      <trkpt lat="47.67312" lon="-2.65043">
        <ele>73</ele>
        <time>2023-10-30T18:12:10Z</time>
      </trkpt>
      <trkpt lat="47.67379" lon="-2.65009">
        <ele>84</ele>
        <time>2023-10-30T18:13:45Z</time>
      </trkpt>
      <trkpt lat="47.67376" lon="-2.64885">
        <ele>79</ele>
        <time>2023-10-30T18:15:36Z</time>
      </trkpt>
      <trkpt lat="47.67427" lon="-2.64898">
        <ele>86</ele>
        <time>2023-10-30T18:16:45Z</time>
      </trkpt>
      <trkpt lat="47.67487" lon="-2.64932">
        <ele>91</ele>
        <time>2023-10-30T18:18:11Z</time>
      </trkpt>
      <trkpt lat="47.67552" lon="-2.6498">
        <ele>92</ele>
        <time>2023-10-30T18:19:48Z</time>
      </trkpt>
      <trkpt lat="47.67622" lon="-2.65049">
        <ele>92</ele>
        <time>2023-10-30T18:21:40Z</time>
      </trkpt>
      <trkpt lat="47.6767" lon="-2.65071">
        <ele>91</ele>
        <time>2023-10-30T18:22:47Z</time>
      </trkpt>
      <trkpt lat="47.67734" lon="-2.65097">
        <ele>92</ele>
        <time>2023-10-30T18:24:15Z</time>
      </trkpt>
      <trkpt lat="47.67808" lon="-2.65097">
        <ele>94</ele>
        <time>2023-10-30T18:25:54Z</time>
      </trkpt>
      <trkpt lat="47.67825" lon="-2.65099">
        <ele>95</ele>
        <time>2023-10-30T18:26:17Z</time>
      </trkpt>
      <trkpt lat="47.67837" lon="-2.65114">
        <ele>95</ele>
        <time>2023-10-30T18:26:38Z</time>
      </trkpt>
      <trkpt lat="47.67889" lon="-2.65111">
        <ele>98</ele>
        <time>2023-10-30T18:27:47Z</time>
      </trkpt>
      <trkpt lat="47.67907" lon="-2.65123">
        <ele>98</ele>
        <time>2023-10-30T18:28:14Z</time>
      </trkpt>
      <trkpt lat="47.67926" lon="-2.65127">
        <ele>99</ele>
        <time>2023-10-30T18:28:39Z</time>
      </trkpt>
      <trkpt lat="47.67998" lon="-2.65065">
        <ele>101</ele>
        <time>2023-10-30T18:30:30Z</time>
      </trkpt>
      <trkpt lat="47.68026" lon="-2.65038">
        <ele>98</ele>
        <time>2023-10-30T18:31:15Z</time>
      </trkpt>
      <trkpt lat="47.68058" lon="-2.65081">
        <ele>97</ele>
        <time>2023-10-30T18:32:12Z</time>
      </trkpt>
      <trkpt lat="47.68124" lon="-2.6501">
        <ele>97</ele>
        <time>2023-10-30T18:34:01Z</time>
      </trkpt>
      <trkpt lat="47.68153" lon="-2.65043">
        <ele>97</ele>
        <time>2023-10-30T18:34:50Z</time>
      </trkpt>
      <trkpt lat="47.68184" lon="-2.65106">
        <ele>95</ele>
        <time>2023-10-30T18:36:00Z</time>
      </trkpt>
      <trkpt lat="47.68233" lon="-2.65127">
        <ele>97</ele>
        <time>2023-10-30T18:37:08Z</time>
      </trkpt>
      <trkpt lat="47.68285" lon="-2.65132">
        <ele>99</ele>
        <time>2023-10-30T18:38:18Z</time>
      </trkpt>
      <trkpt lat="47.68334" lon="-2.65143">
        <ele>100</ele>
        <time>2023-10-30T18:39:24Z</time>
      </trkpt>
      <trkpt lat="47.68367" lon="-2.652">
        <ele>100</ele>
        <time>2023-10-30T18:40:31Z</time>
      </trkpt>
      <trkpt lat="47.68394" lon="-2.65212">
        <ele>101</ele>
        <time>2023-10-30T18:41:09Z</time>
      </trkpt>
      <trkpt lat="47.68452" lon="-2.65161">
        <ele>105</ele>
        <time>2023-10-30T18:42:39Z</time>
      </trkpt>
      <trkpt lat="47.6862" lon="-2.6513">
        <ele>112</ele>
        <time>2023-10-30T18:46:25Z</time>
      </trkpt>
      <trkpt lat="47.68692" lon="-2.6513">
        <ele>116</ele>
        <time>2023-10-30T18:48:01Z</time>
      </trkpt>
      <trkpt lat="47.68768" lon="-2.65149">
        <ele>116</ele>
        <time>2023-10-30T18:49:44Z</time>
      </trkpt>
      <trkpt lat="47.68825" lon="-2.65201">
        <ele>117</ele>
        <time>2023-10-30T18:51:13Z</time>
      </trkpt>
      <trkpt lat="47.68836" lon="-2.65203">
        <ele>118</ele>
        <time>2023-10-30T18:51:28Z</time>
      </trkpt>
      <trkpt lat="47.68894" lon="-2.65176">
        <ele>121</ele>
        <time>2023-10-30T18:52:49Z</time>
      </trkpt>
      <trkpt lat="47.68925" lon="-2.65204">
        <ele>120</ele>
        <time>2023-10-30T18:53:37Z</time>
      </trkpt>
      <trkpt lat="47.68971" lon="-2.6532">
        <ele>116</ele>
        <time>2023-10-30T18:55:38Z</time>
      </trkpt>
      <trkpt lat="47.69" lon="-2.6536">
        <ele>115</ele>
        <time>2023-10-30T18:56:31Z</time>
      </trkpt>
      <trkpt lat="47.69043" lon="-2.65357">
        <ele>117</ele>
        <time>2023-10-30T18:57:28Z</time>
      </trkpt>
      <trkpt lat="47.69113" lon="-2.65338">
        <ele>118</ele>
        <time>2023-10-30T18:59:03Z</time>
      </trkpt>
      <trkpt lat="47.69228" lon="-2.65263">
        <ele>120</ele>
        <time>2023-10-30T19:01:51Z</time>
      </trkpt>
      <trkpt lat="47.69335" lon="-2.6527">
        <ele>123</ele>
        <time>2023-10-30T19:04:14Z</time>
      </trkpt>
      <trkpt lat="47.69298" lon="-2.65511">
        <ele>126</ele>
        <time>2023-10-30T19:07:56Z</time>
      </trkpt>
      <trkpt lat="47.69358" lon="-2.6552">
        <ele>127</ele>
        <time>2023-10-30T19:09:16Z</time>
      </trkpt>
      <trkpt lat="47.69405" lon="-2.65544">
        <ele>128</ele>
        <time>2023-10-30T19:10:23Z</time>
      </trkpt>
      <trkpt lat="47.69557" lon="-2.65565">
        <ele>132</ele>
        <time>2023-10-30T19:13:46Z</time>
      </trkpt>
      <trkpt lat="47.69632" lon="-2.65592">
        <ele>133</ele>
        <time>2023-10-30T19:15:29Z</time>
      </trkpt>
      <trkpt lat="47.69776" lon="-2.65606">
        <ele>132</ele>
        <time>2023-10-30T19:18:42Z</time>
      </trkpt>
      <trkpt lat="47.69825" lon="-2.65607">
        <ele>132</ele>
        <time>2023-10-30T19:19:47Z</time>
      </trkpt>
      <trkpt lat="47.69859" lon="-2.65611">
        <ele>131</ele>
        <time>2023-10-30T19:20:33Z</time>
      </trkpt>
      <trkpt lat="47.6989" lon="-2.65568">
        <ele>129</ele>
        <time>2023-10-30T19:21:30Z</time>
      </trkpt>
      <trkpt lat="47.69894" lon="-2.6549">
        <ele>129</ele>
        <time>2023-10-30T19:22:40Z</time>
      </trkpt>
      <trkpt lat="47.69906" lon="-2.65418">
        <ele>128</ele>
        <time>2023-10-30T19:23:46Z</time>
      </trkpt>
      <trkpt lat="47.69933" lon="-2.65354">
        <ele>122</ele>
        <time>2023-10-30T19:24:54Z</time>
      </trkpt>
      <trkpt lat="47.69948" lon="-2.65304">
        <ele>120</ele>
        <time>2023-10-30T19:25:43Z</time>
      </trkpt>
      <trkpt lat="47.69977" lon="-2.65183">
        <ele>116</ele>
        <time>2023-10-30T19:27:39Z</time>
      </trkpt>
      <trkpt lat="47.69997" lon="-2.65113">
        <ele>114</ele>
        <time>2023-10-30T19:28:47Z</time>
      </trkpt>
      <trkpt lat="47.69997" lon="-2.65043">
        <ele>118</ele>
        <time>2023-10-30T19:29:50Z</time>
      </trkpt>
      <trkpt lat="47.70021" lon="-2.65014">
        <ele>116</ele>
        <time>2023-10-30T19:30:31Z</time>
      </trkpt>
      <trkpt lat="47.7005" lon="-2.64993">
        <ele>111</ele>
        <time>2023-10-30T19:31:14Z</time>
      </trkpt>
      <trkpt lat="47.70098" lon="-2.64991">
        <ele>102</ele>
        <time>2023-10-30T19:32:18Z</time>
      </trkpt>
      <trkpt lat="47.70108" lon="-2.6501">
        <ele>100</ele>
        <time>2023-10-30T19:32:40Z</time>
      </trkpt>
      <trkpt lat="47.70183" lon="-2.65047">
        <ele>89</ele>
        <time>2023-10-30T19:34:25Z</time>
      </trkpt>
      <trkpt lat="47.70207" lon="-2.65069">
        <ele>85</ele>
        <time>2023-10-30T19:35:03Z</time>
      </trkpt>
      <trkpt lat="47.70267" lon="-2.65075">
        <ele>80</ele>
        <time>2023-10-30T19:36:23Z</time>
      </trkpt>
      <trkpt lat="47.70275" lon="-2.65087">
        <ele>79</ele>
        <time>2023-10-30T19:36:38Z</time>
      </trkpt>
      <trkpt lat="47.70279" lon="-2.65089">
        <ele>79</ele>
        <time>2023-10-30T19:36:44Z</time>
      </trkpt>
      <trkpt lat="47.70278" lon="-2.65096">
        <ele>79</ele>
        <time>2023-10-30T19:36:51Z</time>
      </trkpt>
      <trkpt lat="47.70331" lon="-2.65136">
        <ele>78</ele>
        <time>2023-10-30T19:38:10Z</time>
      </trkpt>
      <trkpt lat="47.70306" lon="-2.65268">
        <ele>77</ele>
        <time>2023-10-30T19:40:13Z</time>
      </trkpt>
      <trkpt lat="47.70298" lon="-2.65415">
        <ele>77</ele>
        <time>2023-10-30T19:42:25Z</time>
      </trkpt>
      <trkpt lat="47.70317" lon="-2.65436">
        <ele>78</ele>
        <time>2023-10-30T19:42:57Z</time>
      </trkpt>
      <trkpt lat="47.70303" lon="-2.65501">
        <ele>78</ele>
        <time>2023-10-30T19:43:58Z</time>
      </trkpt>
      <trkpt lat="47.70275" lon="-2.65581">
        <ele>76</ele>
        <time>2023-10-30T19:45:19Z</time>
      </trkpt>
      <trkpt lat="47.70264" lon="-2.65688">
        <ele>75</ele>
        <time>2023-10-30T19:46:57Z</time>
      </trkpt>
      <trkpt lat="47.70303" lon="-2.65785">
        <ele>76</ele>
        <time>2023-10-30T19:48:38Z</time>
      </trkpt>
      <trkpt lat="47.7029" lon="-2.65815">
        <ele>75</ele>
        <time>2023-10-30T19:49:10Z</time>
      </trkpt>
      <trkpt lat="47.70313" lon="-2.6584">
        <ele>75</ele>
        <time>2023-10-30T19:49:48Z</time>
      </trkpt>
      <trkpt lat="47.70356" lon="-2.65837">
        <ele>76</ele>
        <time>2023-10-30T19:50:46Z</time>
      </trkpt>
      <trkpt lat="47.70347" lon="-2.65876">
        <ele>75</ele>
        <time>2023-10-30T19:51:23Z</time>
      </trkpt>
      <trkpt lat="47.70398" lon="-2.66017">
        <ele>75</ele>
        <time>2023-10-30T19:53:46Z</time>
      </trkpt>
      <trkpt lat="47.70391" lon="-2.66153">
        <ele>76</ele>
        <time>2023-10-30T19:55:49Z</time>
      </trkpt>
      <trkpt lat="47.70432" lon="-2.6626">
        <ele>75</ele>
        <time>2023-10-30T19:57:39Z</time>
      </trkpt>
      <trkpt lat="47.7053" lon="-2.66335">
        <ele>80</ele>
        <time>2023-10-30T20:00:06Z</time>
      </trkpt>
      <trkpt lat="47.70559" lon="-2.66464">
        <ele>76</ele>
        <time>2023-10-30T20:02:09Z</time>
      </trkpt>
      <trkpt lat="47.70518" lon="-2.66499">
        <ele>73</ele>
        <time>2023-10-30T20:03:12Z</time>
      </trkpt>
      <trkpt lat="47.70537" lon="-2.66616">
        <ele>74</ele>
        <time>2023-10-30T20:05:00Z</time>
      </trkpt>
      <trkpt lat="47.70523" lon="-2.66628">
        <ele>75</ele>
        <time>2023-10-30T20:05:21Z</time>
      </trkpt>
      <trkpt lat="47.70538" lon="-2.6671">
        <ele>74</ele>
        <time>2023-10-30T20:06:38Z</time>
      </trkpt>
      <trkpt lat="47.70546" lon="-2.6682">
        <ele>72</ele>
        <time>2023-10-30T20:08:17Z</time>
      </trkpt>
      <trkpt lat="47.70542" lon="-2.66927">
        <ele>73</ele>
        <time>2023-10-30T20:09:53Z</time>
      </trkpt>
      <trkpt lat="47.70504" lon="-2.66963">
        <ele>74</ele>
        <time>2023-10-30T20:10:53Z</time>
      </trkpt>
      <trkpt lat="47.70461" lon="-2.67066">
        <ele>77</ele>
        <time>2023-10-30T20:12:42Z</time>
      </trkpt>
      <trkpt lat="47.70399" lon="-2.67254">
        <ele>76</ele>
        <time>2023-10-30T20:15:50Z</time>
      </trkpt>
      <trkpt lat="47.7042" lon="-2.67442">
        <ele>71</ele>
        <time>2023-10-30T20:18:41Z</time>
      </trkpt>
      <trkpt lat="47.70426" lon="-2.67727">
        <ele>68</ele>
        <time>2023-10-30T20:22:57Z</time>
      </trkpt>
      <trkpt lat="47.70387" lon="-2.67783">
        <ele>75</ele>
        <time>2023-10-30T20:24:10Z</time>
      </trkpt>
      <trkpt lat="47.7038" lon="-2.67896">
        <ele>78</ele>
        <time>2023-10-30T20:25:52Z</time>
      </trkpt>
      <trkpt lat="47.70359" lon="-2.67922">
        <ele>83</ele>
        <time>2023-10-30T20:26:28Z</time>
      </trkpt>
      <trkpt lat="47.70355" lon="-2.68054">
        <ele>90</ele>
        <time>2023-10-30T20:28:27Z</time>
      </trkpt>
      <trkpt lat="47.70337" lon="-2.68166">
        <ele>93</ele>
        <time>2023-10-30T20:30:10Z</time>
      </trkpt>
      <trkpt lat="47.70332" lon="-2.68275">
        <ele>92</ele>
        <time>2023-10-30T20:31:48Z</time>
      </trkpt>
      <trkpt lat="47.70332" lon="-2.68329">
        <ele>89</ele>
        <time>2023-10-30T20:32:37Z</time>
      </trkpt>
      <trkpt lat="47.70356" lon="-2.68408">
        <ele>79</ele>
        <time>2023-10-30T20:33:55Z</time>
      </trkpt>
      <trkpt lat="47.70325" lon="-2.68441">
        <ele>83</ele>
        <time>2023-10-30T20:34:46Z</time>
      </trkpt>
      <trkpt lat="47.70296" lon="-2.68485">
        <ele>86</ele>
        <time>2023-10-30T20:35:41Z</time>
      </trkpt>
      <trkpt lat="47.7028" lon="-2.68647">
        <ele>86</ele>
        <time>2023-10-30T20:38:08Z</time>
      </trkpt>
      <trkpt lat="47.70284" lon="-2.68711">
        <ele>86</ele>
        <time>2023-10-30T20:39:06Z</time>
      </trkpt>
      <trkpt lat="47.703" lon="-2.68813">
        <ele>80</ele>
        <time>2023-10-30T20:40:40Z</time>
      </trkpt>
      <trkpt lat="47.70295" lon="-2.68926">
        <ele>82</ele>
        <time>2023-10-30T20:42:22Z</time>
      </trkpt>
      <trkpt lat="47.70269" lon="-2.69057">
        <ele>90</ele>
        <time>2023-10-30T20:44:24Z</time>
      </trkpt>
      <trkpt lat="47.70269" lon="-2.6911">
        <ele>90</ele>
        <time>2023-10-30T20:45:12Z</time>
      </trkpt>
      <trkpt lat="47.70302" lon="-2.69197">
        <ele>84</ele>
        <time>2023-10-30T20:46:41Z</time>
      </trkpt>
      <trkpt lat="47.703" lon="-2.6924">
        <ele>84</ele>
        <time>2023-10-30T20:47:20Z</time>
      </trkpt>
      <trkpt lat="47.70321" lon="-2.69326">
        <ele>78</ele>
        <time>2023-10-30T20:48:42Z</time>
      </trkpt>
      <trkpt lat="47.70323" lon="-2.69386">
        <ele>79</ele>
        <time>2023-10-30T20:49:36Z</time>
      </trkpt>
      <trkpt lat="47.70337" lon="-2.69467">
        <ele>80</ele>
        <time>2023-10-30T20:50:51Z</time>
      </trkpt>
      <trkpt lat="47.70333" lon="-2.6956">
        <ele>82</ele>
        <time>2023-10-30T20:52:15Z</time>
      </trkpt>
      <trkpt lat="47.70324" lon="-2.69623">
        <ele>83</ele>
        <time>2023-10-30T20:53:13Z</time>
      </trkpt>
      <trkpt lat="47.70326" lon="-2.6963">
        <ele>82</ele>
        <time>2023-10-30T20:53:20Z</time>
      </trkpt>
      <trkpt lat="47.70325" lon="-2.69656">
        <ele>81</ele>
        <time>2023-10-30T20:53:43Z</time>
      </trkpt>
      <trkpt lat="47.70321" lon="-2.69695">
        <ele>78</ele>
        <time>2023-10-30T20:54:19Z</time>
      </trkpt>
      <trkpt lat="47.70285" lon="-2.69774">
        <ele>74</ele>
        <time>2023-10-30T20:55:44Z</time>
      </trkpt>
      <trkpt lat="47.70263" lon="-2.69805">
        <ele>74</ele>
        <time>2023-10-30T20:56:25Z</time>
      </trkpt>
      <trkpt lat="47.70263" lon="-2.69817">
        <ele>72</ele>
        <time>2023-10-30T20:56:35Z</time>
      </trkpt>
      <trkpt lat="47.70233" lon="-2.69867">
        <ele>69</ele>
        <time>2023-10-30T20:57:36Z</time>
      </trkpt>
      <trkpt lat="47.70195" lon="-2.699">
        <ele>69</ele>
        <time>2023-10-30T20:58:34Z</time>
      </trkpt>
      <trkpt lat="47.70203" lon="-2.69944">
        <ele>63</ele>
        <time>2023-10-30T20:59:15Z</time>
      </trkpt>
      <trkpt lat="47.70248" lon="-2.69911">
        <ele>62</ele>
        <time>2023-10-30T21:00:22Z</time>
      </trkpt>
      <trkpt lat="47.70261" lon="-2.69888">
        <ele>63</ele>
        <time>2023-10-30T21:00:49Z</time>
      </trkpt>
      <trkpt lat="47.7029" lon="-2.69848">
        <ele>63</ele>
        <time>2023-10-30T21:01:42Z</time>
      </trkpt>
      <trkpt lat="47.70314" lon="-2.69806">
        <ele>64</ele>
        <time>2023-10-30T21:02:32Z</time>
      </trkpt>
      <trkpt lat="47.70378" lon="-2.69872">
        <ele>53</ele>
        <time>2023-10-30T21:04:15Z</time>
      </trkpt>
      <trkpt lat="47.70395" lon="-2.69907">
        <ele>52</ele>
        <time>2023-10-30T21:04:54Z</time>
      </trkpt>
      <trkpt lat="47.70378" lon="-2.69972">
        <ele>56</ele>
        <time>2023-10-30T21:05:57Z</time>
      </trkpt>
      <trkpt lat="47.70511" lon="-2.70135">
        <ele>72</ele>
        <time>2023-10-30T21:09:47Z</time>
      </trkpt>
      <trkpt lat="47.70597" lon="-2.7017">
        <ele>70</ele>
        <time>2023-10-30T21:11:46Z</time>
      </trkpt>
      <trkpt lat="47.70642" lon="-2.70184">
        <ele>71</ele>
        <time>2023-10-30T21:12:47Z</time>
      </trkpt>
      <trkpt lat="47.70681" lon="-2.70211">
        <ele>72</ele>
        <time>2023-10-30T21:13:45Z</time>
      </trkpt>
      <trkpt lat="47.70682" lon="-2.70238">
        <ele>74</ele>
        <time>2023-10-30T21:14:09Z</time>
      </trkpt>
      <trkpt lat="47.70657" lon="-2.70305">
        <ele>85</ele>
        <time>2023-10-30T21:15:18Z</time>
      </trkpt>
      <trkpt lat="47.70654" lon="-2.70419">
        <ele>96</ele>
        <time>2023-10-30T21:17:00Z</time>
      </trkpt>
      <trkpt lat="47.70667" lon="-2.70497">
        <ele>99</ele>
        <time>2023-10-30T21:18:12Z</time>
      </trkpt>
      <trkpt lat="47.70691" lon="-2.70566">
        <ele>99</ele>
        <time>2023-10-30T21:19:22Z</time>
      </trkpt>
      <trkpt lat="47.70707" lon="-2.70707">
        <ele>100</ele>
        <time>2023-10-30T21:21:31Z</time>
      </trkpt>
      <trkpt lat="47.70678" lon="-2.70708">
        <ele>104</ele>
        <time>2023-10-30T21:22:09Z</time>
      </trkpt>
      <trkpt lat="47.70642" lon="-2.70695">
        <ele>108</ele>
        <time>2023-10-30T21:22:59Z</time>
      </trkpt>
      <trkpt lat="47.70609" lon="-2.70691">
        <ele>111</ele>
        <time>2023-10-30T21:23:43Z</time>
      </trkpt>
      <trkpt lat="47.70604" lon="-2.70741">
        <ele>113</ele>
        <time>2023-10-30T21:24:28Z</time>
      </trkpt>
      <trkpt lat="47.70585" lon="-2.70776">
        <ele>115</ele>
        <time>2023-10-30T21:25:09Z</time>
      </trkpt>
      <trkpt lat="47.70545" lon="-2.70799">
        <ele>113</ele>
        <time>2023-10-30T21:26:06Z</time>
      </trkpt>
      <trkpt lat="47.70534" lon="-2.70855">
        <ele>113</ele>
        <time>2023-10-30T21:26:58Z</time>
      </trkpt>
      <trkpt lat="47.70563" lon="-2.70961">
        <ele>114</ele>
        <time>2023-10-30T21:28:41Z</time>
      </trkpt>
      <trkpt lat="47.70601" lon="-2.71025">
        <ele>115</ele>
        <time>2023-10-30T21:29:58Z</time>
      </trkpt>
      <trkpt lat="47.70637" lon="-2.71068">
        <ele>116</ele>
        <time>2023-10-30T21:30:59Z</time>
      </trkpt>
      <trkpt lat="47.70647" lon="-2.71152">
        <ele>113</ele>
        <time>2023-10-30T21:32:16Z</time>
      </trkpt>
      <trkpt lat="47.70638" lon="-2.71198">
        <ele>110</ele>
        <time>2023-10-30T21:32:59Z</time>
      </trkpt>
      <trkpt lat="47.70543" lon="-2.71306">
        <ele>102</ele>
        <time>2023-10-30T21:35:39Z</time>
      </trkpt>
      <trkpt lat="47.7049" lon="-2.71358">
        <ele>99</ele>
        <time>2023-10-30T21:37:03Z</time>
      </trkpt>
      <trkpt lat="47.70497" lon="-2.71386">
        <ele>99</ele>
        <time>2023-10-30T21:37:30Z</time>
      </trkpt>
      <trkpt lat="47.70558" lon="-2.71339">
        <ele>101</ele>
        <time>2023-10-30T21:39:02Z</time>
      </trkpt>
      <trkpt lat="47.70611" lon="-2.71294">
        <ele>104</ele>
        <time>2023-10-30T21:40:23Z</time>
      </trkpt>
      <trkpt lat="47.70665" lon="-2.71234">
        <ele>108</ele>
        <time>2023-10-30T21:41:53Z</time>
      </trkpt>
      <trkpt lat="47.7069" lon="-2.71223">
        <ele>109</ele>
        <time>2023-10-30T21:42:28Z</time>
      </trkpt>
      <trkpt lat="47.70706" lon="-2.71206">
        <ele>110</ele>
        <time>2023-10-30T21:42:54Z</time>
      </trkpt>
      <trkpt lat="47.70731" lon="-2.71256">
        <ele>109</ele>
        <time>2023-10-30T21:43:50Z</time>
      </trkpt>
      <trkpt lat="47.70785" lon="-2.71393">
        <ele>108</ele>
        <time>2023-10-30T21:46:13Z</time>
      </trkpt>
      <trkpt lat="47.70831" lon="-2.71547">
        <ele>106</ele>
        <time>2023-10-30T21:48:44Z</time>
      </trkpt>
      <trkpt lat="47.70872" lon="-2.71641">
        <ele>96</ele>
        <time>2023-10-30T21:50:25Z</time>
      </trkpt>
      <trkpt lat="47.70905" lon="-2.71701">
        <ele>86</ele>
        <time>2023-10-30T21:51:34Z</time>
      </trkpt>
      <trkpt lat="47.709" lon="-2.71821">
        <ele>86</ele>
        <time>2023-10-30T21:53:22Z</time>
      </trkpt>
      <trkpt lat="47.70879" lon="-2.71936">
        <ele>83</ele>
        <time>2023-10-30T21:55:09Z</time>
      </trkpt>
      <trkpt lat="47.70873" lon="-2.72022">
        <ele>76</ele>
        <time>2023-10-30T21:56:27Z</time>
      </trkpt>
      <trkpt lat="47.7085" lon="-2.72054">
        <ele>75</ele>
        <time>2023-10-30T21:57:09Z</time>
      </trkpt>
      <trkpt lat="47.70815" lon="-2.72086">
        <ele>74</ele>
        <time>2023-10-30T21:58:04Z</time>
      </trkpt>
      <trkpt lat="47.70694" lon="-2.72138">
        <ele>75</ele>
        <time>2023-10-30T22:00:52Z</time>
      </trkpt>
      <trkpt lat="47.70654" lon="-2.72134">
        <ele>79</ele>
        <time>2023-10-30T22:01:45Z</time>
      </trkpt>
      <trkpt lat="47.70611" lon="-2.7214">
        <ele>80</ele>
        <time>2023-10-30T22:02:43Z</time>
      </trkpt>
      <trkpt lat="47.70553" lon="-2.72185">
        <ele>78</ele>
        <time>2023-10-30T22:04:10Z</time>
      </trkpt>
      <trkpt lat="47.70483" lon="-2.72255">
        <ele>79</ele>
        <time>2023-10-30T22:06:03Z</time>
      </trkpt>
      <trkpt lat="47.70462" lon="-2.72256">
        <ele>80</ele>
        <time>2023-10-30T22:06:31Z</time>
      </trkpt>
      <trkpt lat="47.70442" lon="-2.72225">
        <ele>84</ele>
        <time>2023-10-30T22:07:09Z</time>
      </trkpt>
      <trkpt lat="47.70432" lon="-2.72183">
        <ele>86</ele>
        <time>2023-10-30T22:07:49Z</time>
      </trkpt>
      <trkpt lat="47.70421" lon="-2.72105">
        <ele>87</ele>
        <time>2023-10-30T22:09:01Z</time>
      </trkpt>
      <trkpt lat="47.70342" lon="-2.72118">
        <ele>85</ele>
        <time>2023-10-30T22:10:47Z</time>
      </trkpt>
      <trkpt lat="47.70257" lon="-2.721">
        <ele>79</ele>
        <time>2023-10-30T22:12:42Z</time>
      </trkpt>
      <trkpt lat="47.70236" lon="-2.7209">
        <ele>76</ele>
        <time>2023-10-30T22:13:11Z</time>
      </trkpt>
      <trkpt lat="47.70208" lon="-2.72056">
        <ele>73</ele>
        <time>2023-10-30T22:13:59Z</time>
      </trkpt>
      <trkpt lat="47.70194" lon="-2.72062">
        <ele>71</ele>
        <time>2023-10-30T22:14:19Z</time>
      </trkpt>
      <trkpt lat="47.70178" lon="-2.72127">
        <ele>68</ele>
        <time>2023-10-30T22:15:21Z</time>
      </trkpt>
      <trkpt lat="47.70174" lon="-2.72191">
        <ele>65</ele>
        <time>2023-10-30T22:16:19Z</time>
      </trkpt>
      <trkpt lat="47.70183" lon="-2.72285">
        <ele>63</ele>
        <time>2023-10-30T22:17:44Z</time>
      </trkpt>
      <trkpt lat="47.70198" lon="-2.72364">
        <ele>60</ele>
        <time>2023-10-30T22:18:58Z</time>
      </trkpt>
      <trkpt lat="47.7022" lon="-2.72427">
        <ele>56</ele>
        <time>2023-10-30T22:20:01Z</time>
      </trkpt>
      <trkpt lat="47.70214" lon="-2.7247">
        <ele>55</ele>
        <time>2023-10-30T22:20:41Z</time>
      </trkpt>
      <trkpt lat="47.70195" lon="-2.72476">
        <ele>55</ele>
        <time>2023-10-30T22:21:07Z</time>
      </trkpt>
      <trkpt lat="47.7015" lon="-2.72545">
        <ele>56</ele>
        <time>2023-10-30T22:22:33Z</time>
      </trkpt>
      <trkpt lat="47.70101" lon="-2.72632">
        <ele>55</ele>
        <time>2023-10-30T22:24:15Z</time>
      </trkpt>
      <trkpt lat="47.7006" lon="-2.72735">
        <ele>49</ele>
        <time>2023-10-30T22:26:02Z</time>
      </trkpt>
      <trkpt lat="47.70035" lon="-2.7275">
        <ele>47</ele>
        <time>2023-10-30T22:26:38Z</time>
      </trkpt>
      <trkpt lat="47.7001" lon="-2.72747">
        <ele>46</ele>
        <time>2023-10-30T22:27:12Z</time>
      </trkpt>
      <trkpt lat="47.69969" lon="-2.7271">
        <ele>48</ele>
        <time>2023-10-30T22:28:16Z</time>
      </trkpt>
      <trkpt lat="47.69918" lon="-2.72676">
        <ele>43</ele>
        <time>2023-10-30T22:29:30Z</time>
      </trkpt>
      <trkpt lat="47.69902" lon="-2.72674">
        <ele>38</ele>
        <time>2023-10-30T22:29:52Z</time>
      </trkpt>
      <trkpt lat="47.6989" lon="-2.72681">
        <ele>34</ele>
        <time>2023-10-30T22:30:09Z</time>
      </trkpt>
      <trkpt lat="47.69893" lon="-2.72696">
        <ele>36</ele>
        <time>2023-10-30T22:30:23Z</time>
      </trkpt>
      <trkpt lat="47.6989" lon="-2.72766">
        <ele>41</ele>
        <time>2023-10-30T22:31:26Z</time>
      </trkpt>
      <trkpt lat="47.6989" lon="-2.72869">
        <ele>50</ele>
        <time>2023-10-30T22:32:59Z</time>
      </trkpt>
      <trkpt lat="47.69896" lon="-2.7299">
        <ele>56</ele>
        <time>2023-10-30T22:34:48Z</time>
      </trkpt>
      <trkpt lat="47.69901" lon="-2.73025">
        <ele>57</ele>
        <time>2023-10-30T22:35:20Z</time>
      </trkpt>
      <trkpt lat="47.69852" lon="-2.73079">
        <ele>54</ele>
        <time>2023-10-30T22:36:41Z</time>
      </trkpt>
      <trkpt lat="47.69805" lon="-2.73123">
        <ele>50</ele>
        <time>2023-10-30T22:37:55Z</time>
      </trkpt>
      <trkpt lat="47.69757" lon="-2.73131">
        <ele>49</ele>
        <time>2023-10-30T22:39:00Z</time>
      </trkpt>
      <trkpt lat="47.69713" lon="-2.7313">
        <ele>47</ele>
        <time>2023-10-30T22:39:58Z</time>
      </trkpt>
      <trkpt lat="47.69664" lon="-2.73135">
        <ele>46</ele>
        <time>2023-10-30T22:41:04Z</time>
      </trkpt>
      <trkpt lat="47.69604" lon="-2.73172">
        <ele>41</ele>
        <time>2023-10-30T22:42:31Z</time>
      </trkpt>
      <trkpt lat="47.69566" lon="-2.73203">
        <ele>40</ele>
        <time>2023-10-30T22:43:29Z</time>
      </trkpt>
      <trkpt lat="47.69551" lon="-2.73202">
        <ele>40</ele>
        <time>2023-10-30T22:43:49Z</time>
      </trkpt>
      <trkpt lat="47.69504" lon="-2.7322">
        <ele>44</ele>
        <time>2023-10-30T22:44:53Z</time>
      </trkpt>
      <trkpt lat="47.69463" lon="-2.73212">
        <ele>42</ele>
        <time>2023-10-30T22:45:49Z</time>
      </trkpt>
      <trkpt lat="47.69421" lon="-2.73195">
        <ele>38</ele>
        <time>2023-10-30T22:46:47Z</time>
      </trkpt>
      <trkpt lat="47.69314" lon="-2.73163">
        <ele>35</ele>
        <time>2023-10-30T22:49:12Z</time>
      </trkpt>
      <trkpt lat="47.6931" lon="-2.73058">
        <ele>33</ele>
        <time>2023-10-30T22:50:47Z</time>
      </trkpt>
      <trkpt lat="47.69311" lon="-2.73019">
        <ele>33</ele>
        <time>2023-10-30T22:51:22Z</time>
      </trkpt>
      <trkpt lat="47.69267" lon="-2.73005">
        <ele>32</ele>
        <time>2023-10-30T22:52:22Z</time>
      </trkpt>
      <trkpt lat="47.69246" lon="-2.72985">
        <ele>32</ele>
        <time>2023-10-30T22:52:55Z</time>
      </trkpt>
      <trkpt lat="47.6922" lon="-2.72984">
        <ele>32</ele>
        <time>2023-10-30T22:53:30Z</time>
      </trkpt>
      <trkpt lat="47.69212" lon="-2.72976">
        <ele>32</ele>
        <time>2023-10-30T22:53:43Z</time>
      </trkpt>
      <trkpt lat="47.69165" lon="-2.72975">
        <ele>31</ele>
        <time>2023-10-30T22:54:45Z</time>
      </trkpt>
      <trkpt lat="47.69095" lon="-2.72923">
        <ele>31</ele>
        <time>2023-10-30T22:56:30Z</time>
      </trkpt>
      <trkpt lat="47.69079" lon="-2.72906">
        <ele>31</ele>
        <time>2023-10-30T22:56:56Z</time>
      </trkpt>
      <trkpt lat="47.69044" lon="-2.72895">
        <ele>31</ele>
        <time>2023-10-30T22:57:44Z</time>
      </trkpt>
      <trkpt lat="47.69041" lon="-2.72874">
        <ele>30</ele>
        <time>2023-10-30T22:58:03Z</time>
      </trkpt>
      <trkpt lat="47.69024" lon="-2.72873">
        <ele>30</ele>
        <time>2023-10-30T22:58:26Z</time>
      </trkpt>
      <trkpt lat="47.68992" lon="-2.72879">
        <ele>30</ele>
        <time>2023-10-30T22:59:09Z</time>
      </trkpt>
      <trkpt lat="47.68984" lon="-2.72889">
        <ele>30</ele>
        <time>2023-10-30T22:59:23Z</time>
      </trkpt>
      <trkpt lat="47.68956" lon="-2.72941">
        <ele>32</ele>
        <time>2023-10-30T23:00:23Z</time>
      </trkpt>
      <trkpt lat="47.68938" lon="-2.72999">
        <ele>34</ele>
        <time>2023-10-30T23:01:20Z</time>
      </trkpt>
      <trkpt lat="47.68935" lon="-2.73048">
        <ele>36</ele>
        <time>2023-10-30T23:02:04Z</time>
      </trkpt>
      <trkpt lat="47.68997" lon="-2.73123">
        <ele>36</ele>
        <time>2023-10-30T23:03:51Z</time>
      </trkpt>
      <trkpt lat="47.69017" lon="-2.73163">
        <ele>38</ele>
        <time>2023-10-30T23:04:36Z</time>
      </trkpt>
      <trkpt lat="47.69002" lon="-2.73387">
        <ele>49</ele>
        <time>2023-10-30T23:07:58Z</time>
      </trkpt>
      <trkpt lat="47.69011" lon="-2.73483">
        <ele>51</ele>
        <time>2023-10-30T23:09:25Z</time>
      </trkpt>
      <trkpt lat="47.68996" lon="-2.73606">
        <ele>53</ele>
        <time>2023-10-30T23:11:17Z</time>
      </trkpt>
      <trkpt lat="47.68974" lon="-2.73673">
        <ele>53</ele>
        <time>2023-10-30T23:12:24Z</time>
      </trkpt>
      <trkpt lat="47.68992" lon="-2.73706">
        <ele>54</ele>
        <time>2023-10-30T23:13:02Z</time>
      </trkpt>
      <trkpt lat="47.69037" lon="-2.73694">
        <ele>55</ele>
        <time>2023-10-30T23:14:03Z</time>
      </trkpt>
      <trkpt lat="47.69077" lon="-2.73816">
        <ele>56</ele>
        <time>2023-10-30T23:16:05Z</time>
      </trkpt>
      <trkpt lat="47.69064" lon="-2.73818">
        <ele>56</ele>
        <time>2023-10-30T23:16:23Z</time>
      </trkpt>
      <trkpt lat="47.69072" lon="-2.73847">
        <ele>56</ele>
        <time>2023-10-30T23:16:51Z</time>
      </trkpt>
      <trkpt lat="47.69097" lon="-2.7385">
        <ele>56</ele>
        <time>2023-10-30T23:17:24Z</time>
      </trkpt>
      <trkpt lat="47.69167" lon="-2.74053">
        <ele>57</ele>
        <time>2023-10-30T23:20:49Z</time>
      </trkpt>
      <trkpt lat="47.69136" lon="-2.74102">
        <ele>55</ele>
        <time>2023-10-30T23:21:50Z</time>
      </trkpt>
      <trkpt lat="47.69144" lon="-2.7424">
        <ele>54</ele>
        <time>2023-10-30T23:23:54Z</time>
      </trkpt>
      <trkpt lat="47.69129" lon="-2.74265">
        <ele>54</ele>
        <time>2023-10-30T23:24:24Z</time>
      </trkpt>
      <trkpt lat="47.6913" lon="-2.74285">
        <ele>54</ele>
        <time>2023-10-30T23:24:42Z</time>
      </trkpt>
      <trkpt lat="47.69152" lon="-2.74295">
        <ele>54</ele>
        <time>2023-10-30T23:25:13Z</time>
      </trkpt>
      <trkpt lat="47.69184" lon="-2.74417">
        <ele>55</ele>
        <time>2023-10-30T23:27:10Z</time>
      </trkpt>
      <trkpt lat="47.69202" lon="-2.74439">
        <ele>55</ele>
        <time>2023-10-30T23:27:42Z</time>
      </trkpt>
      <trkpt lat="47.69259" lon="-2.74553">
        <ele>55</ele>
        <time>2023-10-30T23:29:49Z</time>
      </trkpt>
      <trkpt lat="47.69385" lon="-2.74778">
        <ele>55</ele>
        <time>2023-10-30T23:34:12Z</time>
      </trkpt>
      <trkpt lat="47.69356" lon="-2.74794">
        <ele>54</ele>
        <time>2023-10-30T23:34:53Z</time>
      </trkpt>
      <trkpt lat="47.69416" lon="-2.75007">
        <ele>52</ele>
        <time>2023-10-30T23:38:21Z</time>
      </trkpt>
      <trkpt lat="47.69412" lon="-2.75038">
        <ele>53</ele>
        <time>2023-10-30T23:38:49Z</time>
      </trkpt>
      <trkpt lat="47.69429" lon="-2.75093">
        <ele>54</ele>
        <time>2023-10-30T23:39:43Z</time>
      </trkpt>
      <trkpt lat="47.69451" lon="-2.75105">
        <ele>55</ele>
        <time>2023-10-30T23:40:15Z</time>
      </trkpt>
      <trkpt lat="47.69459" lon="-2.75129">
        <ele>56</ele>
        <time>2023-10-30T23:40:39Z</time>
      </trkpt>
      <trkpt lat="47.69237" lon="-2.75226">
        <ele>53</ele>
        <time>2023-10-30T23:45:48Z</time>
      </trkpt>
      <trkpt lat="47.6917" lon="-2.75233">
        <ele>51</ele>
        <time>2023-10-30T23:47:17Z</time>
      </trkpt>
      <trkpt lat="47.68919" lon="-2.75211">
        <ele>38</ele>
        <time>2023-10-30T23:52:53Z</time>
      </trkpt>
      <trkpt lat="47.68924" lon="-2.7526">
        <ele>37</ele>
        <time>2023-10-30T23:53:37Z</time>
      </trkpt>
      <trkpt lat="47.68892" lon="-2.75262">
        <ele>37</ele>
        <time>2023-10-30T23:54:20Z</time>
      </trkpt>
      <trkpt lat="47.68876" lon="-2.75225">
        <ele>38</ele>
        <time>2023-10-30T23:55:00Z</time>
      </trkpt>
      <trkpt lat="47.68759" lon="-2.7522">
        <ele>36</ele>
        <time>2023-10-30T23:57:36Z</time>
      </trkpt>
      <trkpt lat="47.68741" lon="-2.75212">
        <ele>35</ele>
        <time>2023-10-30T23:58:01Z</time>
      </trkpt>
      <trkpt lat="47.68667" lon="-2.75362">
        <ele>35</ele>
        <time>2023-10-31T00:00:48Z</time>
      </trkpt>
      <trkpt lat="47.68683" lon="-2.75377">
        <ele>37</ele>
        <time>2023-10-31T00:01:13Z</time>
      </trkpt>
      <trkpt lat="47.68653" lon="-2.75479">
        <ele>40</ele>
        <time>2023-10-31T00:02:53Z</time>
      </trkpt>
      <trkpt lat="47.68691" lon="-2.75823">
        <ele>44</ele>
        <time>2023-10-31T00:08:06Z</time>
      </trkpt>
      <trkpt lat="47.6869" lon="-2.75838">
        <ele>44</ele>
        <time>2023-10-31T00:08:20Z</time>
      </trkpt>
      <trkpt lat="47.68639" lon="-2.75885">
        <ele>43</ele>
        <time>2023-10-31T00:09:40Z</time>
      </trkpt>
      <trkpt lat="47.68579" lon="-2.75862">
        <ele>43</ele>
        <time>2023-10-31T00:11:03Z</time>
      </trkpt>
      <trkpt lat="47.68509" lon="-2.75847">
        <ele>40</ele>
        <time>2023-10-31T00:12:37Z</time>
      </trkpt>
      <trkpt lat="47.68383" lon="-2.76164">
        <ele>40</ele>
        <time>2023-10-31T00:18:08Z</time>
      </trkpt>
      <trkpt lat="47.68338" lon="-2.76225">
        <ele>41</ele>
        <time>2023-10-31T00:19:29Z</time>
      </trkpt>
      <trkpt lat="47.68292" lon="-2.76257">
        <ele>42</ele>
        <time>2023-10-31T00:20:37Z</time>
      </trkpt>
      <trkpt lat="47.68219" lon="-2.76283">
        <ele>41</ele>
        <time>2023-10-31T00:22:17Z</time>
      </trkpt>
      <trkpt lat="47.68159" lon="-2.76197">
        <ele>41</ele>
        <time>2023-10-31T00:24:08Z</time>
      </trkpt>
      <trkpt lat="47.68115" lon="-2.76151">
        <ele>40</ele>
        <time>2023-10-31T00:25:20Z</time>
      </trkpt>
      <trkpt lat="47.68084" lon="-2.7606">
        <ele>38</ele>
        <time>2023-10-31T00:26:52Z</time>
      </trkpt>
      <trkpt lat="47.68011" lon="-2.75973">
        <ele>38</ele>
        <time>2023-10-31T00:28:57Z</time>
      </trkpt>
      <trkpt lat="47.67932" lon="-2.75913">
        <ele>41</ele>
        <time>2023-10-31T00:30:55Z</time>
      </trkpt>
      <trkpt lat="47.67907" lon="-2.75969">
        <ele>40</ele>
        <time>2023-10-31T00:31:55Z</time>
      </trkpt>
      <trkpt lat="47.67908" lon="-2.76071">
        <ele>39</ele>
        <time>2023-10-31T00:33:27Z</time>
      </trkpt>
      <trkpt lat="47.67876" lon="-2.76073">
        <ele>40</ele>
        <time>2023-10-31T00:34:10Z</time>
      </trkpt>
      <trkpt lat="47.67797" lon="-2.75932">
        <ele>40</ele>
        <time>2023-10-31T00:36:55Z</time>
      </trkpt>
      <trkpt lat="47.67727" lon="-2.75865">
        <ele>38</ele>
        <time>2023-10-31T00:38:46Z</time>
      </trkpt>
      <trkpt lat="47.6764" lon="-2.75854">
        <ele>41</ele>
        <time>2023-10-31T00:40:42Z</time>
      </trkpt>
      <trkpt lat="47.6755" lon="-2.75977">
        <ele>42</ele>
        <time>2023-10-31T00:43:25Z</time>
      </trkpt>
      <trkpt lat="47.67471" lon="-2.75914">
        <ele>41</ele>
        <time>2023-10-31T00:45:25Z</time>
      </trkpt>
      <trkpt lat="47.67501" lon="-2.75829">
        <ele>41</ele>
        <time>2023-10-31T00:46:51Z</time>
      </trkpt>
      <trkpt lat="47.67491" lon="-2.75811">
        <ele>41</ele>
        <time>2023-10-31T00:47:12Z</time>
      </trkpt>
      <trkpt lat="47.67467" lon="-2.75587">
        <ele>40</ele>
        <time>2023-10-31T00:50:36Z</time>
      </trkpt>
      <trkpt lat="47.67455" lon="-2.75577">
        <ele>39</ele>
        <time>2023-10-31T00:50:54Z</time>
      </trkpt>
      <trkpt lat="47.67454" lon="-2.75512">
        <ele>36</ele>
        <time>2023-10-31T00:51:53Z</time>
      </trkpt>
      <trkpt lat="47.67023" lon="-2.75636">
        <ele>38</ele>
        <time>2023-10-31T01:01:39Z</time>
      </trkpt>
      <trkpt lat="47.67017" lon="-2.757">
        <ele>36</ele>
        <time>2023-10-31T01:02:37Z</time>
      </trkpt>
      <trkpt lat="47.66863" lon="-2.75662">
        <ele>35</ele>
        <time>2023-10-31T01:06:05Z</time>
      </trkpt>
      <trkpt lat="47.66744" lon="-2.75661">
        <ele>33</ele>
        <time>2023-10-31T01:08:44Z</time>
      </trkpt>
      <trkpt lat="47.66488" lon="-2.75598">
        <ele>19</ele>
        <time>2023-10-31T01:14:30Z</time>
      </trkpt>
      <trkpt lat="47.66478" lon="-2.75567">
        <ele>19</ele>
        <time>2023-10-31T01:15:01Z</time>
      </trkpt>
      <trkpt lat="47.66451" lon="-2.75561">
        <ele>18</ele>
        <time>2023-10-31T01:15:37Z</time>
      </trkpt>
      <trkpt lat="47.66433" lon="-2.75576">
        <ele>18</ele>
        <time>2023-10-31T01:16:05Z</time>
      </trkpt>
      <trkpt lat="47.66407" lon="-2.75572">
        <ele>18</ele>
        <time>2023-10-31T01:16:40Z</time>
      </trkpt>
      <trkpt lat="47.66459" lon="-2.75317">
        <ele>23</ele>
        <time>2023-10-31T01:20:39Z</time>
      </trkpt>
    </trkseg>
  </trk>
</gpx>